• Join FlightAware (Why Join?)
  • Login
  • US Flag GB Flag 
11:55 EDT


 

Airport Tracker/Info


-or-


 

Live Flight TrackerFlight Track Log ✈ CTL18 ✈ 15-Apr-2013 ✈ KPTK - KMBS

Flight Track Log - Related Links

Times and Time Zones

All times are in EDT time to prevent confusion due to time zone crossing. See the CTL18 flight status page for this flight to view local times or setup timezone preferences in your user account.

Time Position Orientation Groundspeed Altitude Reporting Facility
EDT Latitude Longitude Course Direction KTS MPH feet Rate Location/Type
19:02 42.6644 -83.4381 268° West 124 143 1,300  Level Cleveland Center
19:02 42.6639 -83.4633 268° West 120 138 1,900 1,140 Climbing Cleveland Center
19:04 42.6995 -83.4309 34° Northeast  Level FlightAware Approximate
19:11 42.9281 -83.3975 321° Northwest  Level FlightAware Approximate
19:12 42.9555 -83.4277 321° Northwest  Level FlightAware Approximate
19:13 42.9829 -83.4578 321° Northwest  Level FlightAware Approximate
19:14 43.0103 -83.4880 321° Northwest  Level FlightAware Approximate
19:15 43.0377 -83.5182 321° Northwest  Level FlightAware Approximate
19:16 43.0650 -83.5485 321° Northwest  Level FlightAware Approximate
19:17 43.0924 -83.5787 321° Northwest  Level FlightAware Approximate
19:18 43.1198 -83.6090 321° Northwest  Level FlightAware Approximate
19:19 43.1471 -83.6394 321° Northwest  Level FlightAware Approximate
19:20 43.1744 -83.6697 321° Northwest  Level FlightAware Approximate
19:21 43.2018 -83.7001 321° Northwest  Level FlightAware Approximate
19:22 43.2286 -83.7312 318° Northwest  Level FlightAware Approximate
19:23 43.2549 -83.7633 318° Northwest  Level FlightAware Approximate
19:24 43.2812 -83.7954 318° Northwest  Level FlightAware Approximate
19:25 43.3075 -83.8276 318° Northwest  Level FlightAware Approximate
19:26 43.3338 -83.8597 318° Northwest  Level FlightAware Approximate
19:27 43.3601 -83.8919 318° Northwest  Level FlightAware Approximate
19:28 43.3880 -83.9213 324° Northwest  Level FlightAware Approximate
19:29 43.4165 -83.9497 324° Northwest  Level FlightAware Approximate
19:30 43.4449 -83.9782 324° Northwest  Level FlightAware Approximate
19:31 43.4734 -84.0067 324° Northwest  Level FlightAware Approximate